Time;durP1;ratioP1;P1;durP2;ratioP2;P2;SDS_P1;SDS_P2;PMS_P1;PMS_P2;Temp;Humidity;BMP_temperature;BMP_pressure;BME280_temperature;BME280_humidity;BME280_pressure;Samples;Min_cycle;Max_cycle;Signal;HPM_P1;HPM_P2
2022/03/17 00:00:35;;;;;;;24.90;17.15;;;;;;;8.73;66.28;102204.59;2047840;28;20138;-64
2022/03/17 00:01:37;;;;;;;23.83;17.38;;;;;;;8.73;66.16;102196.59;2046518;28;45749;-65
2022/03/17 00:02:41;;;;;;;28.38;18.20;;;;;;;8.72;65.56;102203.72;2046753;28;44560;-64
2022/03/17 00:03:43;;;;;;;24.85;18.13;;;;;;;8.72;65.85;102201.03;2046152;28;45195;-64
2022/03/17 00:04:45;;;;;;;22.23;17.23;;;;;;;8.71;66.51;102199.25;2047251;28;46721;-64
2022/03/17 00:05:47;;;;;;;23.80;17.98;;;;;;;8.72;66.65;102200.13;2046511;28;44050;-65
2022/03/17 00:06:49;;;;;;;23.75;17.33;;;;;;;8.70;66.27;102197.44;2048149;28;20115;-64
2022/03/17 00:07:51;;;;;;;23.77;16.45;;;;;;;8.72;65.90;102185.03;2046869;28;41543;-64
2022/03/17 00:08:53;;;;;;;24.65;16.73;;;;;;;8.74;66.25;102188.59;2045766;28;45316;-64
2022/03/17 00:09:55;;;;;;;25.48;16.67;;;;;;;8.78;65.79;102189.50;2046277;28;36881;-64
2022/03/17 00:10:56;;;;;;;23.08;17.45;;;;;;;8.78;65.91;102197.50;2047012;28;42131;-64
2022/03/17 00:11:58;;;;;;;25.42;17.05;;;;;;;8.81;65.83;102191.28;2046321;28;44782;-65
2022/03/17 00:13:00;;;;;;;26.70;17.58;;;;;;;8.79;65.08;102188.59;2048179;28;20035;-64
2022/03/17 00:14:04;;;;;;;25.85;18.00;;;;;;;8.76;65.39;102192.16;2047443;28;20040;-64
2022/03/17 00:15:06;;;;;;;26.85;18.52;;;;;;;8.74;66.02;102193.00;2047594;28;29706;-64
2022/03/17 00:16:12;;;;;;;23.50;17.05;;;;;;;8.70;66.58;102192.09;2047167;28;31850;-64
2022/03/17 00:17:14;;;;;;;24.20;17.25;;;;;;;8.70;66.73;102199.25;2046890;28;44692;-64
2022/03/17 00:18:16;;;;;;;24.10;16.55;;;;;;;8.66;66.36;102198.31;2046291;28;44645;-65
2022/03/17 00:19:18;;;;;;;24.48;17.55;;;;;;;8.67;66.68;102192.13;2046336;28;45600;-64
2022/03/17 00:20:22;;;;;;;24.50;17.40;;;;;;;8.66;66.08;102193.00;2046296;28;44965;-64
2022/03/17 00:21:24;;;;;;;22.42;17.55;;;;;;;8.66;66.14;102187.66;2047961;28;20032;-64
2022/03/17 00:22:26;;;;;;;23.65;17.67;;;;;;;8.67;66.85;102191.19;2047039;28;45307;-66
2022/03/17 00:23:27;;;;;;;25.13;17.77;;;;;;;8.65;66.64;102192.97;2046962;28;47188;-64
2022/03/17 00:24:29;;;;;;;25.20;17.75;;;;;;;8.66;66.19;102195.66;2046543;28;40171;-65
2022/03/17 00:25:32;;;;;;;22.35;16.50;;;;;;;8.67;66.09;102197.47;2047181;28;45416;-64
2022/03/17 00:26:36;;;;;;;25.30;17.30;;;;;;;8.69;66.75;102193.00;2047604;28;20114;-64
2022/03/17 00:27:38;;;;;;;24.58;17.60;;;;;;;8.70;65.89;102200.13;2046784;28;45175;-65
2022/03/17 00:28:39;;;;;;;26.70;18.27;;;;;;;8.67;65.87;102200.13;2047141;28;39429;-65
2022/03/17 00:29:41;;;;;;;24.35;17.15;;;;;;;8.69;66.78;102195.69;2046985;28;43620;-64
2022/03/17 00:30:43;;;;;;;23.92;17.70;;;;;;;8.67;66.08;102193.88;2046650;28;20039;-64
2022/03/17 00:31:45;;;;;;;25.25;17.42;;;;;;;8.69;65.79;102201.03;2046470;28;45758;-65
2022/03/17 00:32:50;;;;;;;22.17;16.73;;;;;;;8.68;65.75;102193.00;2046550;28;44332;-65
2022/03/17 00:33:51;;;;;;;25.42;17.38;;;;;;;8.68;65.68;102195.66;2047819;28;20841;-64
2022/03/17 00:36:13;;;;;;;24.15;17.55;;;;;;;8.69;66.50;102181.44;2046775;28;45594;-64
2022/03/17 00:37:15;;;;;;;24.75;17.63;;;;;;;8.69;66.56;102171.66;2046499;28;45569;-64
2022/03/17 00:38:18;;;;;;;23.02;16.75;;;;;;;8.72;65.91;102179.69;2046614;28;44101;-64
2022/03/17 00:39:21;;;;;;;25.90;17.75;;;;;;;8.71;66.04;102188.56;2046378;28;45161;-65
2022/03/17 00:40:23;;;;;;;26.23;17.25;;;;;;;8.68;66.56;102187.66;2047944;28;20134;-64
2022/03/17 00:41:25;;;;;;;24.35;16.90;;;;;;;8.67;66.26;102186.78;2046513;28;45559;-64
2022/03/17 00:42:29;;;;;;;23.27;16.92;;;;;;;8.67;66.31;102180.53;2046653;28;43708;-64
2022/03/17 00:43:33;;;;;;;23.02;16.65;;;;;;;8.67;65.97;102178.78;2046565;28;44061;-64
2022/03/17 00:44:39;;;;;;;24.17;16.98;;;;;;;8.64;66.12;102170.72;2046731;28;45410;-65
2022/03/17 00:45:44;;;;;;;21.83;16.48;;;;;;;8.66;66.03;102184.09;2046905;28;43905;-64
2022/03/17 00:46:46;;;;;;;24.05;17.23;;;;;;;8.63;66.90;102184.06;2047082;28;45637;-64
2022/03/17 00:47:50;;;;;;;22.25;16.63;;;;;;;8.62;66.57;102183.19;2046297;28;46092;-64
2022/03/17 00:48:52;;;;;;;26.67;16.85;;;;;;;8.64;66.81;102180.53;2046718;28;43038;-64
2022/03/17 00:49:53;;;;;;;25.48;17.45;;;;;;;8.66;66.29;102170.75;2046672;28;45584;-64
2022/03/17 00:50:55;;;;;;;23.27;16.00;;;;;;;8.66;66.61;102194.78;2046447;28;43791;-64
2022/03/17 00:51:57;;;;;;;24.73;17.42;;;;;;;8.68;66.47;102171.63;2045636;28;44939;-65
2022/03/17 00:52:59;;;;;;;23.75;17.05;;;;;;;8.65;65.87;102172.53;2046770;28;46176;-64
2022/03/17 00:54:01;;;;;;;23.75;16.80;;;;;;;8.68;66.39;102171.63;2045951;28;43424;-64
2022/03/17 00:55:05;;;;;;;24.67;18.08;;;;;;;8.67;65.77;102175.19;2046553;28;34386;-64
2022/03/17 00:56:07;;;;;;;25.92;16.98;;;;;;;8.65;65.64;102172.53;2046053;28;45124;-64
2022/03/17 00:57:09;;;;;;;23.58;16.67;;;;;;;8.66;66.00;102162.72;2046292;28;45267;-64
2022/03/17 00:58:11;;;;;;;25.95;18.00;;;;;;;8.64;66.91;102159.16;2046443;28;46379;-64
2022/03/17 00:59:14;;;;;;;23.38;16.65;;;;;;;8.65;66.02;102156.50;2047648;28;43143;-64
2022/03/17 01:00:18;;;;;;;26.02;17.98;;;;;;;8.62;66.16;102159.16;2047666;28;45143;-64
2022/03/17 01:01:20;;;;;;;23.15;16.58;;;;;;;8.62;65.97;102163.63;2048452;28;45795;-64
2022/03/17 01:02:22;;;;;;;23.25;16.38;;;;;;;8.60;67.08;102155.59;2047805;28;43377;-64
2022/03/17 01:03:23;;;;;;;22.90;16.98;;;;;;;8.61;66.31;102149.34;2047575;28;45469;-64
2022/03/17 01:04:25;;;;;;;25.50;16.67;;;;;;;8.60;65.75;102152.94;2047326;28;41473;-64
2022/03/17 01:05:27;;;;;;;23.63;17.05;;;;;;;8.60;66.49;102144.91;2048692;28;32469;-65
2022/03/17 01:06:29;;;;;;;22.55;16.35;;;;;;;8.61;66.06;102152.03;2047776;28;44452;-64
2022/03/17 01:07:32;;;;;;;21.83;16.25;;;;;;;8.60;66.33;102153.81;2049911;28;20043;-65
2022/03/17 01:08:35;;;;;;;25.95;17.52;;;;;;;8.62;66.48;102145.81;2048431;28;31124;-64
2022/03/17 01:09:37;;;;;;;24.85;17.05;;;;;;;8.60;66.46;102145.81;2048282;28;45538;-65
2022/03/17 01:10:39;;;;;;;21.80;16.33;;;;;;;8.58;66.97;102144.03;2048464;28;20160;-65
2022/03/17 01:11:43;;;;;;;25.83;17.13;;;;;;;8.58;66.44;102138.69;2048327;28;46276;-64
2022/03/17 01:12:46;;;;;;;22.20;16.65;;;;;;;8.57;66.46;102137.75;2048156;28;41447;-65
2022/03/17 01:13:48;;;;;;;23.02;16.80;;;;;;;8.56;66.86;102135.09;2048387;28;45481;-65
2022/03/17 01:14:50;;;;;;;23.50;18.15;;;;;;;8.55;66.96;102134.19;2047978;28;43386;-64
2022/03/17 01:15:52;;;;;;;23.98;16.55;;;;;;;8.58;66.70;102133.34;2048617;28;37061;-64
2022/03/17 01:16:54;;;;;;;23.27;17.00;;;;;;;8.58;66.43;102133.34;2047747;28;45227;-65
2022/03/17 01:17:56;;;;;;;22.15;16.27;;;;;;;8.59;66.47;102124.44;2048233;28;42473;-65
2022/03/17 01:18:58;;;;;;;26.52;16.63;;;;;;;8.60;66.65;102126.22;2047403;28;20123;-65
2022/03/17 01:20:00;;;;;;;25.33;18.35;;;;;;;8.57;67.14;102132.44;2047469;28;44435;-65
2022/03/17 01:21:01;;;;;;;24.02;16.98;;;;;;;8.58;66.32;102122.66;2047796;28;45438;-65
2022/03/17 01:22:07;;;;;;;21.77;16.25;;;;;;;8.60;67.03;102120.88;2047826;28;46112;-65
2022/03/17 01:23:09;;;;;;;22.00;17.00;;;;;;;8.60;66.88;102127.13;2048692;28;20039;-64
2022/03/17 01:24:14;;;;;;;24.35;16.60;;;;;;;8.62;66.08;102124.44;2048311;28;36558;-64
2022/03/17 01:25:16;;;;;;;23.67;16.92;;;;;;;8.58;66.84;102128.00;2046956;28;43736;-64
2022/03/17 01:26:18;;;;;;;23.33;17.23;;;;;;;8.57;67.53;102115.53;2047117;28;43028;-65
2022/03/17 01:27:23;;;;;;;22.67;16.88;;;;;;;8.57;67.31;102120.88;2047852;28;46140;-65
2022/03/17 01:28:24;;;;;;;22.25;16.65;;;;;;;8.58;66.83;102122.66;2048305;28;42043;-65
2022/03/17 01:29:26;;;;;;;24.20;18.40;;;;;;;8.56;67.03;102111.06;2047768;28;37814;-65
2022/03/17 01:30:28;;;;;;;24.67;17.63;;;;;;;8.56;66.54;102119.06;2047690;28;45225;-64
2022/03/17 01:31:30;;;;;;;25.48;17.88;;;;;;;8.55;66.61;102111.97;2047933;28;41915;-65
2022/03/17 01:32:32;;;;;;;24.05;17.20;;;;;;;8.56;66.46;102097.72;2047967;28;45502;-64
2022/03/17 01:33:35;;;;;;;23.65;17.63;;;;;;;8.59;66.96;102108.41;2047184;28;44398;-65
2022/03/17 01:34:36;;;;;;;24.00;17.70;;;;;;;8.61;67.24;102111.97;2047604;28;36551;-65
2022/03/17 01:35:38;;;;;;;26.20;17.35;;;;;;;8.58;66.62;102101.31;2046851;28;46192;-65
2022/03/17 01:36:40;;;;;;;22.70;16.58;;;;;;;8.59;67.03;102087.94;2048347;28;42570;-65
2022/03/17 01:37:41;;;;;;;24.50;17.85;;;;;;;8.60;67.17;102100.41;2047828;28;44462;-64
2022/03/17 01:38:43;;;;;;;23.23;17.15;;;;;;;8.61;67.40;102090.63;2048092;28;44307;-64
2022/03/17 01:39:45;;;;;;;23.48;16.63;;;;;;;8.62;66.74;102112.91;2047819;28;42851;-64
2022/03/17 01:40:46;;;;;;;26.55;18.55;;;;;;;8.63;66.24;102098.63;2048340;28;36539;-64
2022/03/17 01:41:49;;;;;;;22.48;16.50;;;;;;;8.62;66.22;102103.09;2048072;28;30518;-65
2022/03/17 01:42:50;;;;;;;24.48;18.15;;;;;;;8.62;66.74;102100.44;2047425;28;44269;-64
2022/03/17 01:43:52;;;;;;;25.13;18.48;;;;;;;8.64;67.17;102104.00;2046837;28;46350;-64
2022/03/17 01:44:55;;;;;;;23.13;17.00;;;;;;;8.65;66.85;102102.19;2047638;28;45166;-65
2022/03/17 01:45:57;;;;;;;24.42;17.75;;;;;;;8.65;67.19;102102.19;2047658;28;44933;-64
2022/03/17 01:48:21;;;;;;;22.48;16.70;;;;;;;8.62;66.42;102096.88;2048566;28;20925;-65
2022/03/17 01:49:23;;;;;;;22.67;17.42;;;;;;;8.59;67.12;102097.72;2048050;28;46096;-65
2022/03/17 01:50:26;;;;;;;22.55;16.55;;;;;;;8.60;66.75;102089.75;2047884;28;45082;-64
2022/03/17 01:51:28;;;;;;;21.20;16.73;;;;;;;8.60;67.26;102088.84;2048149;28;40810;-64
2022/03/17 01:52:30;;;;;;;22.70;16.67;;;;;;;8.59;66.59;102087.06;2048975;28;32993;-64
2022/03/17 01:53:32;;;;;;;22.23;16.33;;;;;;;8.60;66.75;102088.84;2047080;28;45180;-65
2022/03/17 01:54:35;;;;;;;23.70;17.00;;;;;;;8.59;66.77;102087.06;2047036;28;41529;-64
2022/03/17 01:55:39;;;;;;;24.98;17.75;;;;;;;8.56;66.46;102079.03;2048238;28;43814;-64
2022/03/17 01:56:42;;;;;;;26.48;17.75;;;;;;;8.55;66.46;102079.94;2047330;28;35216;-64
2022/03/17 01:57:45;;;;;;;21.95;17.52;;;;;;;8.55;67.08;102077.25;2047431;28;44395;-65
2022/03/17 01:58:47;;;;;;;25.85;17.92;;;;;;;8.56;67.45;102071.94;2047702;28;45385;-64
2022/03/17 01:59:51;;;;;;;22.90;16.15;;;;;;;8.58;66.21;102075.50;2047881;28;20067;-65
2022/03/17 02:00:53;;;;;;;24.92;17.17;;;;;;;8.58;66.41;102071.94;2047033;28;42459;-64
2022/03/17 02:01:55;;;;;;;22.00;16.55;;;;;;;8.57;67.13;102073.69;2047929;28;36624;-64
2022/03/17 02:02:57;;;;;;;22.48;17.95;;;;;;;8.55;67.50;102072.81;2054566;28;45880;-65
2022/03/17 02:03:59;;;;;;;25.20;17.67;;;;;;;8.56;66.28;102076.34;2046859;28;45390;-65
2022/03/17 02:05:03;;;;;;;22.38;17.27;;;;;;;8.58;66.89;102069.28;2046954;28;44253;-65
2022/03/17 02:06:05;;;;;;;23.98;17.17;;;;;;;8.58;66.64;102058.59;2047572;28;43728;-64
2022/03/17 02:07:07;;;;;;;22.83;17.35;;;;;;;8.58;67.06;102054.13;2047637;28;45860;-64
2022/03/17 02:08:11;;;;;;;22.88;16.58;;;;;;;8.58;67.06;102053.25;2047724;28;45818;-64
2022/03/17 02:09:13;;;;;;;22.15;16.85;;;;;;;8.59;66.65;102058.56;2047825;28;44118;-64
2022/03/17 02:10:16;;;;;;;22.27;17.00;;;;;;;8.58;66.92;102054.13;2047036;28;46547;-65
2022/03/17 02:13:58;;;;;;;23.25;16.17;;;;;;;8.56;66.88;102065.69;2052893;28;45922;-65
2022/03/17 02:15:04;;;;;;;24.35;17.58;;;;;;;8.56;67.40;102055.00;2047600;28;44071;-65
2022/03/17 02:16:07;;;;;;;24.05;17.50;;;;;;;8.56;66.80;102055.00;2047442;28;47070;-65
2022/03/17 02:17:08;;;;;;;23.00;17.67;;;;;;;8.54;67.45;102059.44;2046840;28;45965;-64
2022/03/17 02:18:10;;;;;;;24.52;17.13;;;;;;;8.54;67.11;102054.13;2047782;28;43983;-64
2022/03/17 02:19:12;;;;;;;24.00;17.48;;;;;;;8.53;67.34;102060.34;2047468;28;43963;-64
2022/03/17 02:20:15;;;;;;;22.85;16.83;;;;;;;8.53;67.20;102060.34;2047909;28;42049;-64
2022/03/17 02:21:17;;;;;;;25.52;17.83;;;;;;;8.50;67.65;102061.22;2046779;28;42959;-64
2022/03/17 02:22:21;;;;;;;23.95;17.85;;;;;;;8.51;67.63;102057.69;2047106;28;46115;-64
2022/03/17 02:26:09;;;;;;;21.70;17.10;;;;;;;8.56;67.22;102047.91;2046989;28;30555;-65
2022/03/17 02:27:15;;;;;;;22.63;16.33;;;;;;;8.57;67.13;102039.00;2038781;29;44681;-65
2022/03/17 02:28:18;;;;;;;23.33;17.25;;;;;;;8.57;66.32;102039.00;2040141;29;45990;-63
2022/03/17 02:29:20;;;;;;;23.35;17.25;;;;;;;8.57;66.39;102040.78;2039890;29;42955;-64
2022/03/17 02:30:23;;;;;;;24.10;17.52;;;;;;;8.59;66.30;102039.88;2039884;29;46103;-64
2022/03/17 02:31:26;;;;;;;24.27;16.67;;;;;;;8.58;66.97;102019.44;2046523;28;43886;-65
2022/03/17 02:32:27;;;;;;;22.35;16.88;;;;;;;8.59;67.15;102039.00;2046479;28;43984;-64
2022/03/17 02:33:29;;;;;;;21.52;17.08;;;;;;;8.59;66.48;102033.66;2038962;29;44368;-65
2022/03/17 02:34:32;;;;;;;22.52;16.98;;;;;;;8.58;66.68;102031.91;2039370;28;45066;-64
2022/03/17 02:35:34;;;;;;;22.73;17.45;;;;;;;8.57;67.33;102033.66;2039068;29;44227;-64
2022/03/17 02:36:48;;;;;;;22.90;17.60;;;;;;;8.57;66.96;102020.31;2039892;29;42062;-64
2022/03/17 02:37:50;;;;;;;23.60;17.23;;;;;;;8.57;66.97;102019.44;2046836;28;39187;-64
2022/03/17 02:38:52;;;;;;;25.20;18.55;;;;;;;8.58;66.94;102018.56;2038908;29;44992;-65
2022/03/17 02:39:54;;;;;;;23.35;17.35;;;;;;;8.58;66.98;102021.22;2038519;29;43112;-64
2022/03/17 02:40:55;;;;;;;22.55;16.88;;;;;;;8.60;66.16;102027.47;2039692;29;45734;-65
2022/03/17 02:41:57;;;;;;;22.50;16.33;;;;;;;8.61;67.10;102013.19;2040216;28;20081;-65
2022/03/17 02:42:59;;;;;;;22.88;16.20;;;;;;;8.64;65.93;102018.56;2039902;29;43726;-64
2022/03/17 02:44:01;;;;;;;22.02;16.35;;;;;;;8.66;66.04;102011.44;2046570;28;44003;-64
2022/03/17 02:45:06;;;;;;;25.08;17.13;;;;;;;8.64;66.79;102015.00;2047611;28;20048;-64
2022/03/17 02:46:08;;;;;;;22.00;16.45;;;;;;;8.62;66.88;102015.00;2039008;28;45071;-64
2022/03/17 02:47:12;;;;;;;23.17;17.23;;;;;;;8.61;66.80;102013.19;2040835;28;20055;-64
2022/03/17 02:48:16;;;;;;;25.05;18.13;;;;;;;8.61;66.76;102010.53;2038717;28;44189;-64
2022/03/17 02:49:18;;;;;;;22.95;17.10;;;;;;;8.62;65.99;101993.66;2039230;28;47642;-65
2022/03/17 02:50:19;;;;;;;22.30;16.85;;;;;;;8.63;66.47;102000.75;2039136;29;42201;-64
2022/03/17 02:51:21;;;;;;;23.30;18.02;;;;;;;8.62;66.56;102011.44;2039600;28;38638;-64
2022/03/17 02:52:24;;;;;;;23.45;17.48;;;;;;;8.62;66.65;102011.44;2038977;29;43324;-64
2022/03/17 02:53:26;;;;;;;23.52;17.40;;;;;;;8.63;66.53;102003.41;2047306;28;44329;-64
2022/03/17 02:54:28;;;;;;;22.45;17.25;;;;;;;8.63;66.74;101999.88;2047115;28;20834;-64
2022/03/17 02:55:29;;;;;;;23.02;16.35;;;;;;;8.63;66.29;101998.06;2039933;29;43836;-64
2022/03/17 02:56:33;;;;;;;22.58;17.30;;;;;;;8.66;67.03;101995.41;2042146;28;45313;-64
2022/03/17 02:57:36;;;;;;;21.55;16.80;;;;;;;8.65;66.22;101996.31;2047229;28;44268;-64
2022/03/17 02:58:38;;;;;;;24.48;17.65;;;;;;;8.67;66.16;101994.53;2047221;28;42766;-64
2022/03/17 02:59:40;;;;;;;23.50;17.58;;;;;;;8.65;66.80;101996.31;2047449;28;46318;-64
2022/03/17 03:00:44;;;;;;;22.02;16.95;;;;;;;8.66;65.74;101994.53;2047966;28;43532;-64
2022/03/17 03:01:45;;;;;;;23.40;17.63;;;;;;;8.70;66.24;101997.19;2047795;28;38778;-65
2022/03/17 03:02:47;;;;;;;21.60;17.45;;;;;;;8.70;65.62;101997.19;2047205;28;46396;-65
2022/03/17 03:03:52;;;;;;;22.60;16.90;;;;;;;8.71;66.19;101996.31;2047146;28;34247;-64
2022/03/17 03:04:55;;;;;;;21.98;16.63;;;;;;;8.71;66.54;101982.09;2047143;28;43054;-64
2022/03/17 03:05:56;;;;;;;24.80;17.45;;;;;;;8.71;65.55;101987.44;2047241;28;43371;-64
2022/03/17 03:06:59;;;;;;;23.00;16.98;;;;;;;8.70;66.22;101997.19;2047453;28;36270;-64
2022/03/17 03:08:03;;;;;;;23.52;17.00;;;;;;;8.67;66.22;101991.88;2047139;28;45373;-65
2022/03/17 03:09:05;;;;;;;22.98;17.42;;;;;;;8.72;66.21;101981.19;2046454;28;43462;-64
2022/03/17 03:10:07;;;;;;;24.40;17.75;;;;;;;8.72;65.61;101984.78;2039509;28;20114;-64
2022/03/17 03:11:09;;;;;;;23.15;17.20;;;;;;;8.72;66.09;101984.78;2045837;28;44269;-65
2022/03/17 03:12:11;;;;;;;23.27;17.77;;;;;;;8.71;66.27;101987.44;2047421;28;42055;-64
2022/03/17 03:13:13;;;;;;;22.92;17.52;;;;;;;8.72;66.30;101992.78;2039192;28;32606;-65
2022/03/17 03:14:15;;;;;;;22.83;17.23;;;;;;;8.72;66.84;101989.19;2046953;28;43740;-64
2022/03/17 03:15:17;;;;;;;24.35;17.17;;;;;;;8.71;65.74;101990.97;2047176;28;45663;-64
2022/03/17 03:16:18;;;;;;;25.75;17.25;;;;;;;8.71;66.43;101988.31;2047548;28;44624;-65
2022/03/17 03:17:25;;;;;;;22.67;17.25;;;;;;;8.71;66.66;101992.78;2047335;28;33572;-65
2022/03/17 03:18:27;;;;;;;24.80;18.13;;;;;;;8.74;66.40;101985.66;2047190;28;44960;-65
2022/03/17 03:19:29;;;;;;;23.88;17.85;;;;;;;8.74;66.36;101993.66;2047171;28;43390;-64
2022/03/17 03:20:31;;;;;;;25.48;18.58;;;;;;;8.75;65.98;101984.75;2047672;28;36741;-64
2022/03/17 03:21:33;;;;;;;23.67;17.23;;;;;;;8.77;66.21;101991.00;2045913;28;45770;-64
2022/03/17 03:22:39;;;;;;;24.63;17.63;;;;;;;8.77;65.83;102001.69;2046785;28;45135;-64
2022/03/17 03:23:40;;;;;;;23.33;17.48;;;;;;;8.79;65.46;101999.00;2046943;28;45546;-65
2022/03/17 03:24:42;;;;;;;24.77;17.70;;;;;;;8.81;65.08;101999.00;2047543;28;45631;-64
2022/03/17 03:25:44;;;;;;;23.92;17.20;;;;;;;8.80;65.39;102003.47;2047215;28;44286;-65
2022/03/17 03:26:45;;;;;;;25.90;18.45;;;;;;;8.79;65.65;102005.25;2047426;28;45795;-64
2022/03/17 03:27:47;;;;;;;23.98;16.88;;;;;;;8.82;65.90;102006.13;2047692;28;24086;-64
2022/03/17 03:28:49;;;;;;;25.10;17.77;;;;;;;8.81;65.73;101999.91;2046422;28;45640;-64
2022/03/17 03:29:51;;;;;;;24.95;17.77;;;;;;;8.80;65.82;101995.44;2046669;28;44632;-64
2022/03/17 03:30:54;;;;;;;26.42;17.77;;;;;;;8.81;66.16;101999.91;2038659;29;42905;-65
2022/03/17 03:32:03;;;;;;;21.10;16.70;;;;;;;8.81;65.71;101996.34;2038354;28;46681;-64
2022/03/17 03:33:09;;;;;;;22.67;16.80;;;;;;;8.83;65.20;101992.78;2047009;28;43936;-64
2022/03/17 03:34:11;;;;;;;23.65;18.17;;;;;;;8.82;66.23;101998.13;2046142;28;44035;-64
2022/03/17 03:37:54;;;;;;;23.05;17.85;;;;;;;8.77;66.86;102009.69;2048422;28;21778;-64
2022/03/17 03:38:57;;;;;;;25.58;17.88;;;;;;;8.75;67.01;102007.91;2047441;28;43741;-64
2022/03/17 03:39:58;;;;;;;23.73;18.35;;;;;;;8.74;66.23;102009.69;2046914;28;44190;-65
2022/03/17 03:41:01;;;;;;;22.95;17.70;;;;;;;8.74;67.12;102008.78;2046493;28;44261;-64
2022/03/17 03:42:04;;;;;;;26.58;18.27;;;;;;;8.74;66.52;102011.44;2047258;28;44390;-64
2022/03/17 03:43:05;;;;;;;25.27;17.92;;;;;;;8.73;66.57;102010.56;2047257;28;46448;-64
2022/03/17 03:44:07;;;;;;;22.65;18.05;;;;;;;8.73;66.29;102015.91;2048082;28;20146;-65
2022/03/17 03:45:09;;;;;;;25.00;19.40;;;;;;;8.73;67.23;102015.03;2047267;28;44049;-65
2022/03/17 03:46:11;;;;;;;24.52;18.00;;;;;;;8.72;66.98;102027.50;2047366;28;43984;-64
2022/03/17 03:47:13;;;;;;;22.88;17.35;;;;;;;8.71;66.38;102022.13;2047245;28;43218;-65
2022/03/17 03:48:15;;;;;;;23.80;18.17;;;;;;;8.71;67.47;102016.81;2047176;28;45828;-65
2022/03/17 03:49:21;;;;;;;23.92;18.65;;;;;;;8.70;67.17;102021.22;2047035;28;41306;-65
2022/03/17 03:50:22;;;;;;;24.15;18.40;;;;;;;8.71;66.80;102023.03;2054209;28;43150;-65
2022/03/17 03:51:24;;;;;;;23.83;18.85;;;;;;;8.72;66.46;102018.56;2046130;28;46041;-65
2022/03/17 03:52:26;;;;;;;23.35;17.23;;;;;;;8.72;66.61;102018.56;2046433;28;42555;-64
2022/03/17 03:54:12;;;;;;;22.52;17.55;;;;;;;8.72;66.68;102018.56;2046846;28;42989;-65
2022/03/17 03:54:51;;;;;;;23.02;17.80;;;;;;;8.74;67.45;102009.69;2046649;28;45624;-64
2022/03/17 03:55:53;;;;;;;25.10;18.98;;;;;;;8.73;66.75;102018.56;2048303;28;20802;-64
2022/03/17 03:56:56;;;;;;;25.40;18.67;;;;;;;8.71;67.72;102001.66;2046895;28;46085;-64
2022/03/17 03:57:59;;;;;;;25.50;18.13;;;;;;;8.69;67.50;102008.78;2047344;28;41497;-65
2022/03/17 03:59:03;;;;;;;24.58;18.42;;;;;;;8.69;67.25;102005.22;2047098;28;45643;-64
2022/03/17 04:01:27;;;;;;;25.75;18.38;;;;;;;8.67;67.23;102005.22;2046785;28;45716;-64
2022/03/17 04:02:28;;;;;;;24.67;19.17;;;;;;;8.65;67.33;102009.69;2046691;28;46292;-64
2022/03/17 04:03:30;;;;;;;24.10;18.85;;;;;;;8.67;67.34;102006.97;2046616;28;42591;-65
2022/03/17 04:04:34;;;;;;;22.95;18.48;;;;;;;8.65;67.71;102007.00;2046992;28;45822;-64
2022/03/17 04:05:37;;;;;;;24.00;18.67;;;;;;;8.65;68.08;102007.00;2046840;28;45812;-64
2022/03/17 04:06:44;;;;;;;24.80;19.00;;;;;;;8.64;67.56;102004.31;2046857;28;44100;-64
2022/03/17 04:07:49;;;;;;;23.02;18.45;;;;;;;8.63;66.74;102002.53;2046636;28;45300;-65
2022/03/17 04:08:55;;;;;;;22.58;17.85;;;;;;;8.64;67.13;102001.66;2046994;28;43339;-65
2022/03/17 04:09:57;;;;;;;21.67;17.92;;;;;;;8.65;67.41;102007.00;2054404;28;38873;-64
2022/03/17 04:11:00;;;;;;;24.75;18.83;;;;;;;8.66;67.09;102011.44;2054381;28;46289;-64
2022/03/17 04:12:03;;;;;;;23.90;18.58;;;;;;;8.69;67.13;101998.09;2046668;28;43578;-65
2022/03/17 04:13:05;;;;;;;26.52;18.58;;;;;;;8.71;67.23;102006.13;2045997;28;45923;-65
2022/03/17 04:14:09;;;;;;;23.52;18.60;;;;;;;8.68;67.33;102007.00;2038607;28;45600;-64
2022/03/17 04:15:11;;;;;;;23.75;18.98;;;;;;;8.69;66.71;102014.13;2046721;28;37926;-64
2022/03/17 04:16:13;;;;;;;23.17;17.60;;;;;;;8.68;67.24;102006.09;2046798;28;45143;-64
2022/03/17 04:17:14;;;;;;;24.88;18.77;;;;;;;8.66;67.58;102003.44;2046692;28;42596;-65
2022/03/17 04:18:16;;;;;;;22.77;18.00;;;;;;;8.66;67.11;102006.09;2046708;28;43663;-64
2022/03/17 04:19:20;;;;;;;26.05;19.35;;;;;;;8.65;67.36;102012.34;2046719;28;45856;-64
2022/03/17 04:20:22;;;;;;;22.80;18.35;;;;;;;8.66;67.51;102014.09;2046756;28;45110;-64
2022/03/17 04:21:24;;;;;;;24.88;18.20;;;;;;;8.67;66.99;102009.66;2046321;28;44964;-64
2022/03/17 04:22:26;;;;;;;24.75;18.58;;;;;;;8.66;66.49;102006.09;2046755;28;42065;-64
2022/03/17 04:23:30;;;;;;;24.05;18.67;;;;;;;8.65;66.90;102008.75;2047170;28;44454;-63
2022/03/17 04:24:31;;;;;;;26.05;18.98;;;;;;;8.67;67.05;102015.00;2046808;28;45731;-63
2022/03/17 04:25:33;;;;;;;23.95;18.45;;;;;;;8.65;66.77;102007.00;2047379;28;24988;-63
2022/03/17 04:26:35;;;;;;;25.83;19.05;;;;;;;8.65;67.66;102009.69;2046437;28;46905;-63
2022/03/17 04:27:36;;;;;;;25.85;19.90;;;;;;;8.65;67.07;102008.75;2047262;28;42433;-63
2022/03/17 04:28:38;;;;;;;24.40;18.98;;;;;;;8.65;66.61;102014.09;2046319;28;45735;-64
2022/03/17 04:29:40;;;;;;;24.17;19.10;;;;;;;8.65;66.53;102017.69;2047038;28;38640;-63
2022/03/17 04:30:42;;;;;;;23.85;18.65;;;;;;;8.65;66.98;102017.69;2046927;28;45117;-63
2022/03/17 04:31:44;;;;;;;24.08;19.45;;;;;;;8.66;66.46;101998.09;2046348;28;45104;-64
2022/03/17 04:32:46;;;;;;;23.50;18.73;;;;;;;8.70;67.41;102015.00;2046160;28;44815;-63
2022/03/17 04:33:49;;;;;;;24.90;18.48;;;;;;;8.70;66.52;102015.88;2045946;28;43867;-65
2022/03/17 04:34:51;;;;;;;25.48;19.13;;;;;;;8.71;67.03;102008.78;2046127;28;45226;-65
2022/03/17 04:35:52;;;;;;;22.80;18.55;;;;;;;8.75;66.83;102008.78;2046368;28;41460;-65
2022/03/17 04:36:54;;;;;;;23.38;18.92;;;;;;;8.77;66.58;102011.47;2046493;28;45595;-65
2022/03/17 04:37:56;;;;;;;24.10;18.27;;;;;;;8.77;66.55;102023.06;2047269;28;45597;-65
2022/03/17 04:38:59;;;;;;;23.25;18.73;;;;;;;8.78;66.91;102014.13;2046929;28;45727;-65
2022/03/17 04:40:07;;;;;;;23.05;17.88;;;;;;;8.79;66.64;102015.94;2046841;28;45051;-65
2022/03/17 04:41:10;;;;;;;23.67;18.20;;;;;;;8.79;67.05;102023.94;2046275;28;43080;-65
2022/03/17 04:42:11;;;;;;;25.10;19.70;;;;;;;8.79;66.38;102023.03;2046204;28;45221;-65
2022/03/17 04:43:17;;;;;;;25.67;19.35;;;;;;;8.80;66.87;102022.16;2047556;28;29784;-65
2022/03/17 04:44:19;;;;;;;23.52;18.25;;;;;;;8.79;66.94;102017.69;2046904;28;40947;-65
2022/03/17 04:45:20;;;;;;;24.50;19.02;;;;;;;8.79;66.60;102023.94;2046405;28;46280;-63
2022/03/17 04:46:22;;;;;;;26.88;19.30;;;;;;;8.84;65.62;102020.38;2046979;28;43542;-65
2022/03/17 04:47:24;;;;;;;25.20;19.67;;;;;;;8.85;66.17;102024.84;2046849;28;44482;-63
2022/03/17 04:48:26;;;;;;;24.98;18.85;;;;;;;8.86;65.80;102018.59;2047157;28;46031;-63
2022/03/17 04:49:28;;;;;;;24.92;18.75;;;;;;;8.86;66.14;102021.28;2046656;28;43259;-66
2022/03/17 04:50:29;;;;;;;25.60;18.85;;;;;;;8.86;66.87;102015.94;2046611;28;46711;-63
2022/03/17 04:51:32;;;;;;;25.25;19.08;;;;;;;8.86;66.85;102016.81;2046596;28;42714;-63
2022/03/17 04:53:54;;;;;;;23.98;18.05;;;;;;;8.87;66.41;102025.75;2047207;28;20126;-63
2022/03/17 04:54:58;;;;;;;21.90;17.70;;;;;;;8.88;66.19;102019.50;2047935;28;20048;-64
2022/03/17 04:56:12;;;;;;;26.25;19.90;;;;;;;8.85;66.88;102022.19;2046388;28;44868;-63
2022/03/17 04:57:15;;;;;;;25.27;18.40;;;;;;;8.84;66.17;102021.25;2046527;28;44428;-64
2022/03/17 04:58:18;;;;;;;26.30;19.30;;;;;;;8.86;66.17;102021.28;2047056;28;43925;-64
2022/03/17 04:59:21;;;;;;;25.27;18.70;;;;;;;8.85;66.26;102020.38;2047773;28;20095;-64
2022/03/17 05:00:23;;;;;;;25.33;18.67;;;;;;;8.87;66.09;102026.63;2046932;28;43495;-63
2022/03/17 05:01:25;;;;;;;25.80;18.38;;;;;;;8.87;66.84;102023.94;2046280;28;44446;-64